sensor_id;sensor_type;location;lat;lon;timestamp;P1;durP1;ratioP1;P2;durP2;ratioP2
61642;SDS011;47551;52.506;4.678;2024-02-28T00:00:15;8.25;;;5.25;;
61642;SDS011;47551;52.506;4.678;2024-02-28T00:00:38;9.07;;;5.45;;
61642;SDS011;47551;52.506;4.678;2024-02-28T00:01:01;10.30;;;5.28;;
61642;SDS011;47551;52.506;4.678;2024-02-28T00:01:21;8.43;;;5.23;;
61642;SDS011;47551;52.506;4.678;2024-02-28T00:01:51;8.60;;;5.40;;
61642;SDS011;47551;52.506;4.678;2024-02-28T00:02:11;9.45;;;5.60;;
61642;SDS011;47551;52.506;4.678;2024-02-28T00:02:31;9.20;;;5.37;;
61642;SDS011;47551;52.506;4.678;2024-02-28T00:02:51;9.67;;;5.23;;
61642;SDS011;47551;52.506;4.678;2024-02-28T00:03:11;8.47;;;5.30;;
61642;SDS011;47551;52.506;4.678;2024-02-28T00:03:32;9.17;;;5.20;;
61642;SDS011;47551;52.506;4.678;2024-02-28T00:03:53;9.00;;;5.40;;
61642;SDS011;47551;52.506;4.678;2024-02-28T00:04:13;8.13;;;5.13;;
61642;SDS011;47551;52.506;4.678;2024-02-28T00:04:33;8.55;;;5.22;;
61642;SDS011;47551;52.506;4.678;2024-02-28T00:04:53;9.97;;;5.60;;
61642;SDS011;47551;52.506;4.678;2024-02-28T00:05:13;9.27;;;5.70;;
61642;SDS011;47551;52.506;4.678;2024-02-28T00:05:34;9.10;;;5.77;;
61642;SDS011;47551;52.506;4.678;2024-02-28T00:05:54;7.88;;;5.70;;
61642;SDS011;47551;52.506;4.678;2024-02-28T00:06:17;8.53;;;5.37;;
61642;SDS011;47551;52.506;4.678;2024-02-28T00:06:37;8.65;;;5.10;;
61642;SDS011;47551;52.506;4.678;2024-02-28T00:06:58;8.57;;;5.40;;
61642;SDS011;47551;52.506;4.678;2024-02-28T00:07:19;8.60;;;5.45;;
61642;SDS011;47551;52.506;4.678;2024-02-28T00:07:39;9.43;;;5.47;;
61642;SDS011;47551;52.506;4.678;2024-02-28T00:07:59;7.90;;;5.30;;
61642;SDS011;47551;52.506;4.678;2024-02-28T00:08:19;9.10;;;5.67;;
61642;SDS011;47551;52.506;4.678;2024-02-28T00:08:43;8.23;;;5.32;;
61642;SDS011;47551;52.506;4.678;2024-02-28T00:09:03;8.05;;;5.20;;
61642;SDS011;47551;52.506;4.678;2024-02-28T00:09:24;8.70;;;5.40;;
61642;SDS011;47551;52.506;4.678;2024-02-28T00:09:44;8.53;;;5.57;;
61642;SDS011;47551;52.506;4.678;2024-02-28T00:10:04;7.63;;;5.30;;
61642;SDS011;47551;52.506;4.678;2024-02-28T00:10:24;8.02;;;5.13;;
61642;SDS011;47551;52.506;4.678;2024-02-28T00:10:45;8.10;;;4.70;;
61642;SDS011;47551;52.506;4.678;2024-02-28T00:11:05;8.32;;;5.10;;
61642;SDS011;47551;52.506;4.678;2024-02-28T00:11:25;8.47;;;5.30;;
61642;SDS011;47551;52.506;4.678;2024-02-28T00:11:46;7.80;;;5.23;;
61642;SDS011;47551;52.506;4.678;2024-02-28T00:12:06;7.65;;;5.40;;
61642;SDS011;47551;52.506;4.678;2024-02-28T00:12:26;7.47;;;5.50;;
61642;SDS011;47551;52.506;4.678;2024-02-28T00:12:46;8.53;;;5.63;;
61642;SDS011;47551;52.506;4.678;2024-02-28T00:13:07;9.32;;;5.55;;
61642;SDS011;47551;52.506;4.678;2024-02-28T00:13:27;9.73;;;5.30;;
61642;SDS011;47551;52.506;4.678;2024-02-28T00:13:47;11.03;;;5.53;;
61642;SDS011;47551;52.506;4.678;2024-02-28T00:14:07;11.27;;;5.70;;
61642;SDS011;47551;52.506;4.678;2024-02-28T00:14:27;9.87;;;6.00;;
61642;SDS011;47551;52.506;4.678;2024-02-28T00:14:47;8.50;;;5.70;;
61642;SDS011;47551;52.506;4.678;2024-02-28T00:15:08;9.40;;;6.00;;
61642;SDS011;47551;52.506;4.678;2024-02-28T00:15:30;8.20;;;5.75;;
61642;SDS011;47551;52.506;4.678;2024-02-28T00:15:50;10.57;;;6.00;;
61642;SDS011;47551;52.506;4.678;2024-02-28T00:16:11;9.07;;;6.27;;
61642;SDS011;47551;52.506;4.678;2024-02-28T00:16:31;9.40;;;6.15;;
61642;SDS011;47551;52.506;4.678;2024-02-28T00:16:51;8.43;;;5.40;;
61642;SDS011;47551;52.506;4.678;2024-02-28T00:17:12;9.27;;;5.90;;
61642;SDS011;47551;52.506;4.678;2024-02-28T00:17:33;9.45;;;5.95;;
61642;SDS011;47551;52.506;4.678;2024-02-28T00:17:56;9.47;;;6.00;;
61642;SDS011;47551;52.506;4.678;2024-02-28T00:18:16;7.97;;;5.95;;
61642;SDS011;47551;52.506;4.678;2024-02-28T00:18:37;9.00;;;6.00;;
61642;SDS011;47551;52.506;4.678;2024-02-28T00:18:57;9.85;;;6.13;;
61642;SDS011;47551;52.506;4.678;2024-02-28T00:19:17;9.90;;;6.30;;
61642;SDS011;47551;52.506;4.678;2024-02-28T00:19:38;9.88;;;6.32;;
61642;SDS011;47551;52.506;4.678;2024-02-28T00:19:58;9.03;;;6.10;;
61642;SDS011;47551;52.506;4.678;2024-02-28T00:20:18;8.87;;;6.40;;
61642;SDS011;47551;52.506;4.678;2024-02-28T00:20:38;9.07;;;6.05;;
61642;SDS011;47551;52.506;4.678;2024-02-28T00:20:59;9.53;;;6.20;;
61642;SDS011;47551;52.506;4.678;2024-02-28T00:21:19;10.97;;;6.57;;
61642;SDS011;47551;52.506;4.678;2024-02-28T00:21:39;12.00;;;6.67;;
61642;SDS011;47551;52.506;4.678;2024-02-28T00:22:00;10.52;;;6.38;;
61642;SDS011;47551;52.506;4.678;2024-02-28T00:22:21;10.07;;;6.28;;
61642;SDS011;47551;52.506;4.678;2024-02-28T00:22:41;9.33;;;6.20;;
61642;SDS011;47551;52.506;4.678;2024-02-28T00:23:02;9.07;;;6.45;;
61642;SDS011;47551;52.506;4.678;2024-02-28T00:23:25;9.68;;;6.40;;
61642;SDS011;47551;52.506;4.678;2024-02-28T00:23:45;9.05;;;6.22;;
61642;SDS011;47551;52.506;4.678;2024-02-28T00:24:06;10.93;;;6.40;;
61642;SDS011;47551;52.506;4.678;2024-02-28T00:24:26;10.10;;;6.72;;
61642;SDS011;47551;52.506;4.678;2024-02-28T00:24:46;10.43;;;6.63;;
61642;SDS011;47551;52.506;4.678;2024-02-28T00:25:07;10.20;;;6.40;;
61642;SDS011;47551;52.506;4.678;2024-02-28T00:25:27;9.55;;;6.40;;
61642;SDS011;47551;52.506;4.678;2024-02-28T00:25:48;10.87;;;6.73;;
61642;SDS011;47551;52.506;4.678;2024-02-28T00:26:08;12.03;;;6.50;;
61642;SDS011;47551;52.506;4.678;2024-02-28T00:26:28;10.97;;;6.67;;
61642;SDS011;47551;52.506;4.678;2024-02-28T00:26:48;10.20;;;6.23;;
61642;SDS011;47551;52.506;4.678;2024-02-28T00:27:08;10.45;;;6.35;;
61642;SDS011;47551;52.506;4.678;2024-02-28T00:27:29;11.70;;;6.80;;
61642;SDS011;47551;52.506;4.678;2024-02-28T00:27:49;10.20;;;6.60;;
61642;SDS011;47551;52.506;4.678;2024-02-28T00:28:09;9.60;;;6.47;;
61642;SDS011;47551;52.506;4.678;2024-02-28T00:28:29;11.90;;;6.67;;
61642;SDS011;47551;52.506;4.678;2024-02-28T00:28:49;10.43;;;6.60;;
61642;SDS011;47551;52.506;4.678;2024-02-28T00:29:10;11.27;;;6.47;;
61642;SDS011;47551;52.506;4.678;2024-02-28T00:29:30;10.23;;;6.80;;
61642;SDS011;47551;52.506;4.678;2024-02-28T00:29:50;10.98;;;7.10;;
61642;SDS011;47551;52.506;4.678;2024-02-28T00:30:10;11.40;;;6.87;;
61642;SDS011;47551;52.506;4.678;2024-02-28T00:30:30;11.03;;;6.60;;
61642;SDS011;47551;52.506;4.678;2024-02-28T00:30:52;12.57;;;6.80;;
61642;SDS011;47551;52.506;4.678;2024-02-28T00:31:12;10.20;;;6.43;;
61642;SDS011;47551;52.506;4.678;2024-02-28T00:31:35;9.23;;;6.40;;
61642;SDS011;47551;52.506;4.678;2024-02-28T00:31:55;9.57;;;6.63;;
61642;SDS011;47551;52.506;4.678;2024-02-28T00:32:15;10.80;;;6.87;;
61642;SDS011;47551;52.506;4.678;2024-02-28T00:32:35;10.33;;;6.70;;
61642;SDS011;47551;52.506;4.678;2024-02-28T00:32:56;10.07;;;6.50;;
61642;SDS011;47551;52.506;4.678;2024-02-28T00:33:16;10.33;;;6.57;;
61642;SDS011;47551;52.506;4.678;2024-02-28T00:33:36;10.17;;;6.73;;
61642;SDS011;47551;52.506;4.678;2024-02-28T00:33:56;10.77;;;6.70;;
61642;SDS011;47551;52.506;4.678;2024-02-28T00:34:16;12.50;;;6.88;;
61642;SDS011;47551;52.506;4.678;2024-02-28T00:34:36;11.27;;;6.60;;
61642;SDS011;47551;52.506;4.678;2024-02-28T00:34:57;12.60;;;6.50;;
61642;SDS011;47551;52.506;4.678;2024-02-28T00:35:17;11.63;;;6.80;;
61642;SDS011;47551;52.506;4.678;2024-02-28T00:35:37;10.02;;;6.45;;
61642;SDS011;47551;52.506;4.678;2024-02-28T00:35:59;10.27;;;6.72;;
61642;SDS011;47551;52.506;4.678;2024-02-28T00:36:19;10.10;;;6.50;;
61642;SDS011;47551;52.506;4.678;2024-02-28T00:36:42;12.65;;;6.90;;
61642;SDS011;47551;52.506;4.678;2024-02-28T00:37:02;10.83;;;6.70;;
61642;SDS011;47551;52.506;4.678;2024-02-28T00:37:23;9.73;;;6.47;;
61642;SDS011;47551;52.506;4.678;2024-02-28T00:37:43;9.00;;;6.47;;
61642;SDS011;47551;52.506;4.678;2024-02-28T00:38:03;9.33;;;6.67;;
61642;SDS011;47551;52.506;4.678;2024-02-28T00:38:23;9.10;;;6.50;;
61642;SDS011;47551;52.506;4.678;2024-02-28T00:38:43;9.43;;;6.13;;
61642;SDS011;47551;52.506;4.678;2024-02-28T00:39:03;9.88;;;6.55;;
61642;SDS011;47551;52.506;4.678;2024-02-28T00:39:24;10.30;;;6.30;;
61642;SDS011;47551;52.506;4.678;2024-02-28T00:39:44;10.87;;;6.40;;
61642;SDS011;47551;52.506;4.678;2024-02-28T00:40:05;10.02;;;6.45;;
61642;SDS011;47551;52.506;4.678;2024-02-28T00:40:25;10.13;;;6.70;;
61642;SDS011;47551;52.506;4.678;2024-02-28T00:40:45;9.83;;;6.70;;
61642;SDS011;47551;52.506;4.678;2024-02-28T00:41:06;10.20;;;6.77;;
61642;SDS011;47551;52.506;4.678;2024-02-28T00:41:26;10.57;;;6.68;;
61642;SDS011;47551;52.506;4.678;2024-02-28T00:41:46;10.43;;;6.53;;
61642;SDS011;47551;52.506;4.678;2024-02-28T00:42:06;10.30;;;6.90;;
61642;SDS011;47551;52.506;4.678;2024-02-28T00:42:27;10.20;;;6.77;;
61642;SDS011;47551;52.506;4.678;2024-02-28T00:42:47;10.60;;;6.70;;
61642;SDS011;47551;52.506;4.678;2024-02-28T00:43:08;9.10;;;6.40;;
61642;SDS011;47551;52.506;4.678;2024-02-28T00:43:28;9.80;;;6.60;;
61642;SDS011;47551;52.506;4.678;2024-02-28T00:43:48;9.77;;;6.77;;
61642;SDS011;47551;52.506;4.678;2024-02-28T00:44:08;8.87;;;6.33;;
61642;SDS011;47551;52.506;4.678;2024-02-28T00:44:29;10.63;;;6.70;;
61642;SDS011;47551;52.506;4.678;2024-02-28T00:44:49;10.30;;;6.40;;
61642;SDS011;47551;52.506;4.678;2024-02-28T00:45:09;9.83;;;6.17;;
61642;SDS011;47551;52.506;4.678;2024-02-28T00:45:33;10.05;;;6.30;;
61642;SDS011;47551;52.506;4.678;2024-02-28T00:45:53;9.35;;;6.25;;
61642;SDS011;47551;52.506;4.678;2024-02-28T00:46:15;10.50;;;6.43;;
61642;SDS011;47551;52.506;4.678;2024-02-28T00:46:35;11.23;;;6.87;;
61642;SDS011;47551;52.506;4.678;2024-02-28T00:46:55;11.33;;;6.27;;
61642;SDS011;47551;52.506;4.678;2024-02-28T00:47:19;10.63;;;6.23;;
61642;SDS011;47551;52.506;4.678;2024-02-28T00:47:39;10.43;;;6.60;;
61642;SDS011;47551;52.506;4.678;2024-02-28T00:48:00;9.07;;;6.13;;
61642;SDS011;47551;52.506;4.678;2024-02-28T00:48:20;10.20;;;6.20;;
61642;SDS011;47551;52.506;4.678;2024-02-28T00:48:40;9.30;;;6.30;;
61642;SDS011;47551;52.506;4.678;2024-02-28T00:49:01;9.23;;;6.30;;
61642;SDS011;47551;52.506;4.678;2024-02-28T00:49:21;10.43;;;6.50;;
61642;SDS011;47551;52.506;4.678;2024-02-28T00:49:41;10.00;;;6.15;;
61642;SDS011;47551;52.506;4.678;2024-02-28T00:50:01;9.33;;;5.67;;
61642;SDS011;47551;52.506;4.678;2024-02-28T00:50:23;8.82;;;5.90;;
61642;SDS011;47551;52.506;4.678;2024-02-28T00:50:43;9.10;;;5.80;;
61642;SDS011;47551;52.506;4.678;2024-02-28T00:51:03;7.93;;;5.97;;
61642;SDS011;47551;52.506;4.678;2024-02-28T00:51:23;8.93;;;6.10;;
61642;SDS011;47551;52.506;4.678;2024-02-28T00:51:43;11.27;;;6.20;;
61642;SDS011;47551;52.506;4.678;2024-02-28T00:52:03;9.82;;;5.70;;
61642;SDS011;47551;52.506;4.678;2024-02-28T00:52:24;9.57;;;5.70;;
61642;SDS011;47551;52.506;4.678;2024-02-28T00:52:45;10.30;;;5.80;;
61642;SDS011;47551;52.506;4.678;2024-02-28T00:53:05;9.18;;;5.80;;
61642;SDS011;47551;52.506;4.678;2024-02-28T00:53:28;9.32;;;5.90;;
61642;SDS011;47551;52.506;4.678;2024-02-28T00:53:49;10.13;;;5.80;;
61642;SDS011;47551;52.506;4.678;2024-02-28T00:54:09;10.07;;;6.20;;
61642;SDS011;47551;52.506;4.678;2024-02-28T00:54:29;10.90;;;6.18;;
61642;SDS011;47551;52.506;4.678;2024-02-28T00:54:49;10.23;;;5.67;;
61642;SDS011;47551;52.506;4.678;2024-02-28T00:55:09;10.67;;;5.90;;
61642;SDS011;47551;52.506;4.678;2024-02-28T00:55:30;11.33;;;6.00;;
61642;SDS011;47551;52.506;4.678;2024-02-28T00:55:50;10.48;;;6.03;;
61642;SDS011;47551;52.506;4.678;2024-02-28T00:56:11;9.18;;;5.75;;
61642;SDS011;47551;52.506;4.678;2024-02-28T00:56:32;9.85;;;5.97;;
61642;SDS011;47551;52.506;4.678;2024-02-28T00:56:52;10.63;;;6.13;;
61642;SDS011;47551;52.506;4.678;2024-02-28T00:57:12;9.40;;;5.90;;
61642;SDS011;47551;52.506;4.678;2024-02-28T00:57:32;8.47;;;5.77;;
61642;SDS011;47551;52.506;4.678;2024-02-28T00:57:52;8.43;;;5.57;;
61642;SDS011;47551;52.506;4.678;2024-02-28T00:58:13;8.20;;;5.40;;
61642;SDS011;47551;52.506;4.678;2024-02-28T00:58:33;8.27;;;5.63;;
61642;SDS011;47551;52.506;4.678;2024-02-28T00:58:53;9.87;;;5.50;;
61642;SDS011;47551;52.506;4.678;2024-02-28T00:59:13;8.63;;;5.60;;
61642;SDS011;47551;52.506;4.678;2024-02-28T00:59:33;10.70;;;5.70;;
61642;SDS011;47551;52.506;4.678;2024-02-28T00:59:54;10.30;;;6.00;;
61642;SDS011;47551;52.506;4.678;2024-02-28T01:00:14;9.73;;;5.65;;
61642;SDS011;47551;52.506;4.678;2024-02-28T01:00:35;10.03;;;5.37;;
61642;SDS011;47551;52.506;4.678;2024-02-28T01:00:55;10.27;;;5.50;;
61642;SDS011;47551;52.506;4.678;2024-02-28T01:01:15;10.00;;;5.63;;
61642;SDS011;47551;52.506;4.678;2024-02-28T01:01:35;9.70;;;5.60;;
61642;SDS011;47551;52.506;4.678;2024-02-28T01:01:55;8.93;;;5.43;;
61642;SDS011;47551;52.506;4.678;2024-02-28T01:02:18;9.60;;;5.68;;
61642;SDS011;47551;52.506;4.678;2024-02-28T01:02:39;9.33;;;5.30;;
61642;SDS011;47551;52.506;4.678;2024-02-28T01:03:00;8.75;;;5.40;;
61642;SDS011;47551;52.506;4.678;2024-02-28T01:03:23;9.48;;;5.68;;
61642;SDS011;47551;52.506;4.678;2024-02-28T01:03:43;9.37;;;5.50;;
61642;SDS011;47551;52.506;4.678;2024-02-28T01:04:03;8.93;;;5.30;;
61642;SDS011;47551;52.506;4.678;2024-02-28T01:04:24;9.18;;;5.47;;
61642;SDS011;47551;52.506;4.678;2024-02-28T01:04:44;8.87;;;5.60;;
61642;SDS011;47551;52.506;4.678;2024-02-28T01:05:04;9.70;;;5.30;;
61642;SDS011;47551;52.506;4.678;2024-02-28T01:05:24;8.65;;;5.13;;
61642;SDS011;47551;52.506;4.678;2024-02-28T01:05:44;11.23;;;5.17;;
61642;SDS011;47551;52.506;4.678;2024-02-28T01:06:05;10.50;;;5.37;;
61642;SDS011;47551;52.506;4.678;2024-02-28T01:06:25;10.00;;;5.30;;
61642;SDS011;47551;52.506;4.678;2024-02-28T01:06:45;8.90;;;4.80;;
61642;SDS011;47551;52.506;4.678;2024-02-28T01:07:06;9.27;;;5.27;;
61642;SDS011;47551;52.506;4.678;2024-02-28T01:07:26;8.98;;;5.40;;
61642;SDS011;47551;52.506;4.678;2024-02-28T01:07:46;9.60;;;5.00;;
61642;SDS011;47551;52.506;4.678;2024-02-28T01:08:06;9.57;;;5.17;;
61642;SDS011;47551;52.506;4.678;2024-02-28T01:08:27;10.10;;;5.53;;
61642;SDS011;47551;52.506;4.678;2024-02-28T01:08:47;9.27;;;5.50;;
61642;SDS011;47551;52.506;4.678;2024-02-28T01:09:07;7.60;;;5.17;;
61642;SDS011;47551;52.506;4.678;2024-02-28T01:09:27;8.17;;;5.20;;
61642;SDS011;47551;52.506;4.678;2024-02-28T01:09:48;8.82;;;5.22;;
61642;SDS011;47551;52.506;4.678;2024-02-28T01:10:08;8.63;;;5.27;;
61642;SDS011;47551;52.506;4.678;2024-02-28T01:10:28;9.10;;;5.17;;
61642;SDS011;47551;52.506;4.678;2024-02-28T01:10:48;8.70;;;5.33;;
61642;SDS011;47551;52.506;4.678;2024-02-28T01:11:09;8.20;;;5.23;;
61642;SDS011;47551;52.506;4.678;2024-02-28T01:11:29;9.02;;;5.20;;
61642;SDS011;47551;52.506;4.678;2024-02-28T01:11:49;9.50;;;5.07;;
61642;SDS011;47551;52.506;4.678;2024-02-28T01:12:10;9.03;;;5.20;;
61642;SDS011;47551;52.506;4.678;2024-02-28T01:12:30;9.90;;;5.50;;
61642;SDS011;47551;52.506;4.678;2024-02-28T01:12:50;10.27;;;5.40;;
61642;SDS011;47551;52.506;4.678;2024-02-28T01:13:10;8.73;;;5.13;;
61642;SDS011;47551;52.506;4.678;2024-02-28T01:13:30;8.83;;;5.20;;
61642;SDS011;47551;52.506;4.678;2024-02-28T01:13:50;8.37;;;5.10;;
61642;SDS011;47551;52.506;4.678;2024-02-28T01:14:11;9.50;;;5.37;;
61642;SDS011;47551;52.506;4.678;2024-02-28T01:14:31;9.63;;;5.68;;
61642;SDS011;47551;52.506;4.678;2024-02-28T01:14:51;9.37;;;5.30;;
61642;SDS011;47551;52.506;4.678;2024-02-28T01:15:11;9.07;;;5.40;;
61642;SDS011;47551;52.506;4.678;2024-02-28T01:15:32;7.28;;;5.00;;
61642;SDS011;47551;52.506;4.678;2024-02-28T01:15:52;8.97;;;5.20;;
61642;SDS011;47551;52.506;4.678;2024-02-28T01:16:12;9.53;;;5.13;;
61642;SDS011;47551;52.506;4.678;2024-02-28T01:16:32;8.30;;;4.87;;
61642;SDS011;47551;52.506;4.678;2024-02-28T01:16:53;8.93;;;5.07;;
61642;SDS011;47551;52.506;4.678;2024-02-28T01:17:13;9.17;;;5.43;;
61642;SDS011;47551;52.506;4.678;2024-02-28T01:17:33;9.13;;;5.60;;
61642;SDS011;47551;52.506;4.678;2024-02-28T01:17:53;9.33;;;5.20;;
61642;SDS011;47551;52.506;4.678;2024-02-28T01:18:13;9.10;;;5.00;;
61642;SDS011;47551;52.506;4.678;2024-02-28T01:18:33;8.00;;;4.87;;
61642;SDS011;47551;52.506;4.678;2024-02-28T01:18:56;9.13;;;5.23;;
61642;SDS011;47551;52.506;4.678;2024-02-28T01:19:17;10.02;;;5.18;;
61642;SDS011;47551;52.506;4.678;2024-02-28T01:19:37;11.43;;;5.27;;
61642;SDS011;47551;52.506;4.678;2024-02-28T01:19:57;8.90;;;5.20;;
61642;SDS011;47551;52.506;4.678;2024-02-28T01:20:17;7.90;;;4.83;;
61642;SDS011;47551;52.506;4.678;2024-02-28T01:20:37;8.37;;;5.00;;
61642;SDS011;47551;52.506;4.678;2024-02-28T01:20:57;8.07;;;5.00;;
61642;SDS011;47551;52.506;4.678;2024-02-28T01:21:18;9.80;;;5.00;;
61642;SDS011;47551;52.506;4.678;2024-02-28T01:21:38;8.70;;;5.17;;
61642;SDS011;47551;52.506;4.678;2024-02-28T01:21:59;7.90;;;5.60;;
61642;SDS011;47551;52.506;4.678;2024-02-28T01:22:19;8.53;;;4.90;;
61642;SDS011;47551;52.506;4.678;2024-02-28T01:22:39;9.27;;;5.13;;
61642;SDS011;47551;52.506;4.678;2024-02-28T01:23:00;9.50;;;5.30;;
61642;SDS011;47551;52.506;4.678;2024-02-28T01:23:20;9.20;;;5.30;;
61642;SDS011;47551;52.506;4.678;2024-02-28T01:23:40;8.63;;;5.22;;
61642;SDS011;47551;52.506;4.678;2024-02-28T01:24:01;7.93;;;5.10;;
61642;SDS011;47551;52.506;4.678;2024-02-28T01:24:21;9.13;;;5.10;;
61642;SDS011;47551;52.506;4.678;2024-02-28T01:24:41;9.25;;;5.07;;
61642;SDS011;47551;52.506;4.678;2024-02-28T01:25:02;8.83;;;5.33;;
61642;SDS011;47551;52.506;4.678;2024-02-28T01:25:22;8.52;;;5.65;;
61642;SDS011;47551;52.506;4.678;2024-02-28T01:25:43;10.40;;;5.20;;
61642;SDS011;47551;52.506;4.678;2024-02-28T01:26:03;10.30;;;5.50;;
61642;SDS011;47551;52.506;4.678;2024-02-28T01:26:24;9.60;;;5.30;;
61642;SDS011;47551;52.506;4.678;2024-02-28T01:26:44;9.00;;;5.10;;
61642;SDS011;47551;52.506;4.678;2024-02-28T01:27:04;9.57;;;4.90;;
61642;SDS011;47551;52.506;4.678;2024-02-28T01:27:24;8.77;;;5.07;;
61642;SDS011;47551;52.506;4.678;2024-02-28T01:27:44;7.57;;;4.93;;
61642;SDS011;47551;52.506;4.678;2024-02-28T01:28:04;8.30;;;5.00;;
61642;SDS011;47551;52.506;4.678;2024-02-28T01:28:25;8.43;;;5.20;;
61642;SDS011;47551;52.506;4.678;2024-02-28T01:28:45;8.93;;;5.17;;
61642;SDS011;47551;52.506;4.678;2024-02-28T01:29:06;9.75;;;5.20;;
61642;SDS011;47551;52.506;4.678;2024-02-28T01:29:26;8.93;;;5.10;;
61642;SDS011;47551;52.506;4.678;2024-02-28T01:29:46;8.10;;;4.87;;
61642;SDS011;47551;52.506;4.678;2024-02-28T01:30:06;8.57;;;5.07;;
61642;SDS011;47551;52.506;4.678;2024-02-28T01:30:27;9.90;;;5.03;;
61642;SDS011;47551;52.506;4.678;2024-02-28T01:30:47;9.67;;;5.23;;
61642;SDS011;47551;52.506;4.678;2024-02-28T01:31:08;9.38;;;4.93;;
61642;SDS011;47551;52.506;4.678;2024-02-28T01:31:28;10.57;;;4.80;;
61642;SDS011;47551;52.506;4.678;2024-02-28T01:31:48;9.88;;;4.95;;
61642;SDS011;47551;52.506;4.678;2024-02-28T01:32:08;8.53;;;5.00;;
61642;SDS011;47551;52.506;4.678;2024-02-28T01:32:29;8.77;;;4.93;;
61642;SDS011;47551;52.506;4.678;2024-02-28T01:32:49;9.20;;;5.03;;
61642;SDS011;47551;52.506;4.678;2024-02-28T01:33:09;9.03;;;4.70;;
61642;SDS011;47551;52.506;4.678;2024-02-28T01:33:29;9.60;;;4.80;;
61642;SDS011;47551;52.506;4.678;2024-02-28T01:33:50;8.80;;;5.07;;
61642;SDS011;47551;52.506;4.678;2024-02-28T01:34:10;8.95;;;4.60;;
61642;SDS011;47551;52.506;4.678;2024-02-28T01:34:30;8.57;;;4.93;;
61642;SDS011;47551;52.506;4.678;2024-02-28T01:34:50;8.33;;;4.80;;
61642;SDS011;47551;52.506;4.678;2024-02-28T01:35:10;8.77;;;4.60;;
61642;SDS011;47551;52.506;4.678;2024-02-28T01:35:30;8.95;;;5.10;;
61642;SDS011;47551;52.506;4.678;2024-02-28T01:35:54;9.03;;;4.83;;
61642;SDS011;47551;52.506;4.678;2024-02-28T01:36:15;9.20;;;5.00;;
61642;SDS011;47551;52.506;4.678;2024-02-28T01:36:35;8.40;;;5.00;;
61642;SDS011;47551;52.506;4.678;2024-02-28T01:36:55;8.40;;;5.27;;
61642;SDS011;47551;52.506;4.678;2024-02-28T01:37:15;9.43;;;4.95;;
61642;SDS011;47551;52.506;4.678;2024-02-28T01:37:35;7.90;;;4.80;;
61642;SDS011;47551;52.506;4.678;2024-02-28T01:37:56;7.63;;;5.00;;
61642;SDS011;47551;52.506;4.678;2024-02-28T01:38:16;7.85;;;5.13;;
61642;SDS011;47551;52.506;4.678;2024-02-28T01:38:36;8.87;;;5.10;;
61642;SDS011;47551;52.506;4.678;2024-02-28T01:38:56;9.40;;;5.47;;
61642;SDS011;47551;52.506;4.678;2024-02-28T01:39:16;9.17;;;5.60;;
61642;SDS011;47551;52.506;4.678;2024-02-28T01:39:37;8.07;;;5.28;;
61642;SDS011;47551;52.506;4.678;2024-02-28T01:39:57;9.23;;;5.23;;
61642;SDS011;47551;52.506;4.678;2024-02-28T01:40:17;9.20;;;5.37;;
61642;SDS011;47551;52.506;4.678;2024-02-28T01:40:37;8.53;;;5.33;;
61642;SDS011;47551;52.506;4.678;2024-02-28T01:40:58;8.75;;;5.35;;
61642;SDS011;47551;52.506;4.678;2024-02-28T01:41:18;9.00;;;5.43;;
61642;SDS011;47551;52.506;4.678;2024-02-28T01:41:38;7.97;;;5.50;;
61642;SDS011;47551;52.506;4.678;2024-02-28T01:41:58;8.93;;;5.50;;
61642;SDS011;47551;52.506;4.678;2024-02-28T01:42:19;9.73;;;5.77;;
61642;SDS011;47551;52.506;4.678;2024-02-28T01:42:39;9.90;;;5.30;;
61642;SDS011;47551;52.506;4.678;2024-02-28T01:43:02;9.73;;;5.50;;
61642;SDS011;47551;52.506;4.678;2024-02-28T01:43:23;8.70;;;5.47;;
61642;SDS011;47551;52.506;4.678;2024-02-28T01:43:43;9.83;;;5.60;;
61642;SDS011;47551;52.506;4.678;2024-02-28T01:44:04;8.93;;;5.70;;
61642;SDS011;47551;52.506;4.678;2024-02-28T01:44:24;8.13;;;5.77;;
61642;SDS011;47551;52.506;4.678;2024-02-28T01:44:45;8.93;;;5.83;;
61642;SDS011;47551;52.506;4.678;2024-02-28T01:45:07;10.55;;;6.40;;
61642;SDS011;47551;52.506;4.678;2024-02-28T01:45:29;10.30;;;6.50;;
61642;SDS011;47551;52.506;4.678;2024-02-28T01:45:49;8.40;;;6.10;;
61642;SDS011;47551;52.506;4.678;2024-02-28T01:46:23;9.37;;;6.20;;
61642;SDS011;47551;52.506;4.678;2024-02-28T01:46:44;8.90;;;5.90;;
61642;SDS011;47551;52.506;4.678;2024-02-28T01:47:04;8.60;;;6.28;;
61642;SDS011;47551;52.506;4.678;2024-02-28T01:47:24;8.77;;;6.30;;
61642;SDS011;47551;52.506;4.678;2024-02-28T01:47:44;9.87;;;6.30;;
61642;SDS011;47551;52.506;4.678;2024-02-28T01:48:06;10.15;;;6.68;;
61642;SDS011;47551;52.506;4.678;2024-02-28T01:48:26;10.82;;;6.57;;
61642;SDS011;47551;52.506;4.678;2024-02-28T01:48:47;10.27;;;6.40;;
61642;SDS011;47551;52.506;4.678;2024-02-28T01:49:07;9.53;;;6.50;;
61642;SDS011;47551;52.506;4.678;2024-02-28T01:49:30;10.57;;;6.35;;
61642;SDS011;47551;52.506;4.678;2024-02-28T01:49:50;10.87;;;6.40;;
61642;SDS011;47551;52.506;4.678;2024-02-28T01:50:10;10.57;;;6.60;;
61642;SDS011;47551;52.506;4.678;2024-02-28T01:50:32;9.68;;;6.75;;
61642;SDS011;47551;52.506;4.678;2024-02-28T01:50:52;9.30;;;6.73;;
61642;SDS011;47551;52.506;4.678;2024-02-28T01:51:12;10.23;;;6.63;;
61642;SDS011;47551;52.506;4.678;2024-02-28T01:51:33;9.83;;;6.73;;
61642;SDS011;47551;52.506;4.678;2024-02-28T01:51:53;11.15;;;6.80;;
61642;SDS011;47551;52.506;4.678;2024-02-28T01:52:14;10.43;;;6.45;;
61642;SDS011;47551;52.506;4.678;2024-02-28T01:52:35;10.10;;;6.60;;
61642;SDS011;47551;52.506;4.678;2024-02-28T01:52:55;11.38;;;6.80;;
61642;SDS011;47551;52.506;4.678;2024-02-28T01:53:15;11.33;;;6.40;;
61642;SDS011;47551;52.506;4.678;2024-02-28T01:53:36;12.43;;;6.88;;
61642;SDS011;47551;52.506;4.678;2024-02-28T01:53:56;10.27;;;7.00;;
61642;SDS011;47551;52.506;4.678;2024-02-28T01:54:16;9.10;;;6.63;;
61642;SDS011;47551;52.506;4.678;2024-02-28T01:54:38;10.38;;;6.55;;
61642;SDS011;47551;52.506;4.678;2024-02-28T01:54:58;10.37;;;6.90;;
61642;SDS011;47551;52.506;4.678;2024-02-28T01:55:18;11.83;;;7.30;;
61642;SDS011;47551;52.506;4.678;2024-02-28T01:55:41;10.35;;;7.07;;
61642;SDS011;47551;52.506;4.678;2024-02-28T01:56:02;9.85;;;6.90;;
61642;SDS011;47551;52.506;4.678;2024-02-28T01:56:23;12.10;;;7.00;;
61642;SDS011;47551;52.506;4.678;2024-02-28T01:56:43;12.15;;;6.90;;
61642;SDS011;47551;52.506;4.678;2024-02-28T01:57:05;9.90;;;7.00;;
61642;SDS011;47551;52.506;4.678;2024-02-28T01:57:26;10.77;;;7.07;;
61642;SDS011;47551;52.506;4.678;2024-02-28T01:57:47;11.52;;;7.18;;
61642;SDS011;47551;52.506;4.678;2024-02-28T01:58:07;10.33;;;6.80;;
61642;SDS011;47551;52.506;4.678;2024-02-28T01:58:30;10.43;;;6.80;;
61642;SDS011;47551;52.506;4.678;2024-02-28T01:58:50;10.57;;;7.13;;
61642;SDS011;47551;52.506;4.678;2024-02-28T01:59:10;12.90;;;7.30;;
61642;SDS011;47551;52.506;4.678;2024-02-28T01:59:31;13.80;;;7.38;;
61642;SDS011;47551;52.506;4.678;2024-02-28T01:59:52;11.23;;;7.07;;
61642;SDS011;47551;52.506;4.678;2024-02-28T02:00:12;10.80;;;7.07;;
61642;SDS011;47551;52.506;4.678;2024-02-28T02:00:33;10.70;;;7.20;;
61642;SDS011;47551;52.506;4.678;2024-02-28T02:00:54;11.88;;;7.22;;
61642;SDS011;47551;52.506;4.678;2024-02-28T02:01:14;11.80;;;6.93;;
61642;SDS011;47551;52.506;4.678;2024-02-28T02:01:34;10.73;;;7.30;;
61642;SDS011;47551;52.506;4.678;2024-02-28T02:01:55;10.57;;;7.33;;
61642;SDS011;47551;52.506;4.678;2024-02-28T02:02:15;11.10;;;7.25;;
61642;SDS011;47551;52.506;4.678;2024-02-28T02:02:36;12.17;;;7.23;;
61642;SDS011;47551;52.506;4.678;2024-02-28T02:02:56;10.37;;;6.93;;
61642;SDS011;47551;52.506;4.678;2024-02-28T02:03:16;10.23;;;7.05;;